< < Back
Terminal Aerodrome Forecast


Current Version              Previous Versions:   1  2  3  4  5  6  7  8  9  

Terminal Aerodrome Forecast

758
FTUS42 KJAX 230500
TAFSSI
TAF
KSSI 230521Z 2306/2406 VRB03KT P6SM SKC
     FM231400 03011KT P6SM SKC
     FM240000 04005KT P6SM SKC=

Latest METAR

855
SAUS70 KWBC 230958
MTRSSI
METAR KSSI 230953Z AUTO 36007KT 10SM CLR 11/09 A3006 RMK AO2 SLP177
T01060094


USA.gov is the U.S. government's official web portal to all federal, state and local government web resources and services.